createdAt,value
2018-06-01T00:01:05.959Z,89.90
2018-06-01T00:03:33.360Z,89.66
2018-06-01T00:06:00.750Z,89.78
2018-06-01T00:08:29.112Z,89.54
2018-06-01T00:10:56.503Z,89.47
2018-06-01T00:13:23.890Z,89.34
2018-06-01T00:15:51.518Z,89.50
2018-06-01T00:18:18.911Z,89.66
2018-06-01T00:20:46.296Z,89.61
2018-06-01T00:23:13.715Z,89.60
2018-06-01T00:25:41.098Z,89.38
2018-06-01T00:28:08.487Z,89.36
2018-06-01T00:30:35.919Z,89.29
2018-06-01T00:33:03.303Z,89.28
2018-06-01T00:35:30.695Z,89.67
2018-06-01T00:37:58.087Z,89.88
2018-06-01T00:40:25.479Z,89.77
2018-06-01T00:42:52.866Z,90.22
2018-06-01T00:45:20.259Z,90.72
2018-06-01T00:47:47.662Z,90.63
2018-06-01T00:50:15.047Z,90.56
2018-06-01T00:52:42.439Z,90.56
2018-06-01T00:55:21.678Z,89.96
2018-06-01T00:57:49.067Z,89.81
2018-06-01T01:00:16.450Z,90.25
2018-06-01T01:02:43.847Z,89.98
2018-06-01T01:05:11.235Z,89.95
2018-06-01T01:07:38.631Z,89.78
2018-06-01T01:10:06.029Z,89.99
2018-06-01T01:12:33.434Z,89.90
2018-06-01T01:15:00.823Z,90.16
2018-06-01T01:17:28.220Z,89.82
2018-06-01T01:19:55.602Z,90.41
2018-06-01T01:22:23.003Z,90.67
2018-06-01T01:24:50.395Z,90.71
2018-06-01T01:27:17.798Z,90.49
2018-06-01T01:29:45.207Z,90.46
2018-06-01T01:32:12.592Z,90.46
2018-06-01T01:34:39.988Z,90.56
2018-06-01T01:37:07.383Z,90.50
2018-06-01T01:39:34.774Z,90.61
2018-06-01T01:42:02.158Z,90.62
2018-06-01T01:44:29.555Z,90.48
2018-06-01T01:46:56.951Z,90.62
2018-06-01T01:49:24.342Z,90.63
2018-06-01T01:51:51.722Z,90.63
2018-06-01T01:54:19.120Z,90.45
2018-06-01T01:56:46.513Z,90.44
2018-06-01T01:59:13.912Z,90.28
2018-06-01T02:01:41.299Z,90.37
2018-06-01T02:04:08.690Z,90.27
2018-06-01T02:06:36.083Z,90.56
2018-06-01T02:09:03.475Z,91.53
2018-06-01T02:11:30.884Z,93.31
2018-06-01T02:13:58.277Z,93.87
2018-06-01T02:16:25.691Z,93.55
2018-06-01T02:18:53.075Z,93.81
2018-06-01T02:21:20.472Z,94.13
2018-06-01T02:23:47.859Z,93.97
2018-06-01T02:26:15.255Z,94.19
2018-06-01T02:28:42.643Z,93.64
2018-06-01T02:31:10.043Z,93.64
2018-06-01T02:33:37.436Z,93.30
2018-06-01T02:36:04.838Z,93.09
2018-06-01T02:38:32.224Z,92.62
2018-06-01T02:40:59.620Z,92.60
2018-06-01T02:43:27.018Z,92.31
2018-06-01T02:45:54.410Z,92.20
2018-06-01T02:48:21.795Z,92.14
2018-06-01T02:50:49.178Z,92.68
2018-06-01T02:53:16.567Z,93.03
2018-06-01T02:55:43.951Z,94.12
2018-06-01T02:58:11.345Z,94.69
2018-06-01T03:00:38.731Z,95.09
2018-06-01T03:03:06.119Z,94.63
2018-06-01T03:05:33.523Z,94.34
2018-06-01T03:08:00.915Z,93.74
2018-06-01T03:10:28.306Z,93.55
2018-06-01T03:12:55.702Z,93.36
2018-06-01T03:15:23.091Z,93.02
2018-06-01T03:17:50.500Z,92.75
2018-06-01T03:20:17.882Z,92.36
2018-06-01T03:22:45.271Z,91.91
2018-06-01T03:25:12.667Z,91.61
2018-06-01T03:27:40.056Z,91.34
2018-06-01T03:30:07.443Z,91.21
2018-06-01T03:32:34.847Z,91.23
2018-06-01T03:35:02.274Z,90.93
2018-06-01T03:37:29.635Z,91.01
2018-06-01T03:39:57.023Z,91.54
2018-06-01T03:42:24.419Z,92.38
2018-06-01T03:44:51.802Z,92.20
2018-06-01T03:47:19.205Z,92.45
2018-06-01T03:49:46.595Z,92.52
2018-06-01T03:52:13.992Z,90.85
2018-06-01T03:54:41.379Z,90.08
2018-06-01T03:57:08.767Z,87.27
2018-06-01T03:59:36.167Z,87.52
2018-06-01T04:02:03.555Z,87.51
2018-06-01T04:04:30.951Z,88.81
2018-06-01T04:06:58.362Z,90.78
2018-06-01T04:09:28.723Z,92.12
2018-06-01T04:11:56.110Z,92.76
2018-06-01T04:14:23.498Z,94.14
2018-06-01T04:16:50.935Z,95.35
2018-06-01T04:19:18.339Z,95.90
2018-06-01T04:21:45.714Z,97.54
2018-06-01T04:24:13.106Z,99.46
2018-06-01T04:26:40.500Z,99.71
2018-06-01T04:29:07.895Z,100.00
2018-06-01T04:31:35.319Z,100.00
2018-06-01T04:34:02.711Z,100.00
2018-06-01T04:36:30.122Z,100.00
2018-06-01T04:38:57.510Z,100.00
2018-06-01T04:41:25.094Z,100.00
2018-06-01T04:43:52.490Z,100.00
2018-06-01T04:46:19.896Z,100.00
2018-06-01T04:48:47.282Z,100.00
2018-06-01T04:51:14.687Z,100.00
2018-06-01T04:53:42.071Z,100.00
2018-06-01T04:56:09.489Z,100.00
2018-06-01T04:58:36.863Z,100.00
2018-06-01T05:01:04.259Z,100.00
2018-06-01T05:03:31.656Z,100.00
2018-06-01T05:05:59.039Z,100.00
2018-06-01T05:08:26.434Z,100.00
2018-06-01T05:10:53.842Z,100.00
2018-06-01T05:13:21.227Z,100.00
2018-06-01T05:15:48.914Z,100.00
2018-06-01T05:18:16.310Z,100.00
2018-06-01T05:20:43.703Z,100.00
2018-06-01T05:23:11.115Z,100.00
2018-06-01T05:25:38.507Z,100.00
2018-06-01T05:28:05.898Z,100.00
2018-06-01T05:30:33.298Z,100.00
2018-06-01T05:33:00.693Z,100.00
2018-06-01T05:35:28.145Z,100.00
2018-06-01T05:37:55.492Z,100.00
2018-06-01T05:40:22.886Z,100.00
2018-06-01T05:42:50.304Z,100.00
2018-06-01T05:45:17.698Z,100.00
2018-06-01T05:47:45.091Z,100.00
2018-06-01T05:50:12.872Z,100.00
2018-06-01T05:52:40.263Z,100.00
2018-06-01T05:55:07.655Z,100.00
2018-06-01T05:57:35.060Z,100.00
2018-06-01T06:00:02.451Z,100.00
2018-06-01T06:02:29.856Z,100.00
2018-06-01T06:04:57.252Z,100.00
2018-06-01T06:07:24.646Z,100.00
2018-06-01T06:09:52.039Z,100.00
2018-06-01T06:12:19.446Z,100.00
2018-06-01T06:14:46.839Z,100.00
2018-06-01T06:17:14.234Z,100.00
2018-06-01T06:19:41.627Z,100.00
2018-06-01T06:22:09.032Z,100.00
2018-06-01T06:24:36.438Z,100.00
2018-06-01T06:27:03.831Z,100.00
2018-06-01T06:29:31.238Z,100.00
2018-06-01T06:31:58.627Z,100.00
2018-06-01T06:34:26.039Z,100.00
2018-06-01T06:36:53.432Z,100.00
2018-06-01T06:39:20.831Z,100.00
2018-06-01T06:41:48.229Z,100.00
2018-06-01T06:44:15.623Z,100.00
2018-06-01T06:46:43.035Z,100.00
2018-06-01T06:49:10.439Z,100.00
2018-06-01T06:51:37.835Z,100.00
2018-06-01T06:54:05.231Z,100.00
2018-06-01T06:56:32.631Z,100.00
2018-06-01T06:59:00.019Z,100.00
2018-06-01T07:01:27.423Z,100.00
2018-06-01T07:03:54.810Z,99.93
2018-06-01T07:06:22.207Z,100.00
2018-06-01T07:08:49.610Z,100.00
2018-06-01T07:11:17.079Z,100.00
2018-06-01T07:13:44.474Z,100.00
2018-06-01T07:16:11.867Z,100.00
2018-06-01T07:18:39.264Z,100.00
2018-06-01T07:21:06.664Z,100.00
2018-06-01T07:23:34.062Z,100.00
2018-06-01T07:26:01.447Z,100.00
2018-06-01T07:28:28.853Z,100.00
2018-06-01T07:30:56.242Z,100.00
2018-06-01T07:33:23.670Z,100.00
2018-06-01T07:35:51.047Z,100.00
2018-06-01T07:38:18.479Z,100.00
2018-06-01T07:40:45.874Z,100.00
2018-06-01T07:43:13.267Z,100.00
2018-06-01T07:45:40.667Z,100.00
2018-06-01T07:48:08.071Z,100.00
2018-06-01T07:50:35.467Z,100.00
2018-06-01T07:53:02.858Z,100.00
2018-06-01T07:55:30.266Z,100.00
2018-06-01T07:57:57.653Z,100.00
2018-06-01T08:00:25.051Z,100.00
2018-06-01T08:02:52.447Z,100.00
2018-06-01T08:05:19.859Z,100.00
2018-06-01T08:07:47.239Z,100.00
2018-06-01T08:10:14.636Z,100.00
2018-06-01T08:12:42.051Z,100.00
2018-06-01T08:15:09.472Z,100.00
2018-06-01T08:17:36.867Z,100.00
2018-06-01T08:20:04.267Z,100.00
2018-06-01T08:22:31.663Z,100.00
2018-06-01T08:24:59.055Z,100.00
2018-06-01T08:27:26.666Z,100.00
2018-06-01T08:29:54.059Z,100.00
2018-06-01T08:32:21.508Z,100.00
2018-06-01T08:34:48.875Z,100.00
2018-06-01T08:37:16.311Z,100.00
2018-06-01T08:39:43.687Z,100.00
2018-06-01T08:42:11.100Z,100.00
2018-06-01T08:44:38.495Z,100.00
2018-06-01T08:47:05.891Z,100.00
2018-06-01T08:49:33.287Z,100.00
2018-06-01T08:52:00.682Z,100.00
2018-06-01T08:54:28.078Z,100.00
2018-06-01T08:56:55.479Z,100.00
2018-06-01T08:59:22.871Z,100.00
2018-06-01T09:01:50.263Z,100.00
2018-06-01T09:04:17.663Z,100.00
2018-06-01T09:06:45.052Z,100.00
2018-06-01T09:09:12.618Z,100.00
2018-06-01T09:11:40.010Z,100.00
2018-06-01T09:14:07.399Z,100.00
2018-06-01T09:16:34.798Z,100.00
2018-06-01T09:19:02.190Z,100.00
2018-06-01T09:21:29.596Z,100.00
2018-06-01T09:23:56.984Z,100.00
2018-06-01T09:26:24.378Z,100.00
2018-06-01T09:28:51.771Z,100.00
2018-06-01T09:31:19.171Z,100.00
2018-06-01T09:33:46.566Z,100.00
2018-06-01T09:36:13.966Z,100.00
2018-06-01T09:38:41.355Z,100.00
2018-06-01T09:41:08.754Z,100.00
2018-06-01T09:43:36.164Z,100.00
2018-06-01T09:46:03.556Z,100.00
2018-06-01T09:48:31.115Z,100.00
2018-06-01T09:50:58.509Z,100.00
2018-06-01T09:53:25.911Z,100.00
2018-06-01T09:55:53.303Z,100.00
2018-06-01T09:58:20.702Z,100.00
2018-06-01T10:00:53.783Z,100.00
2018-06-01T10:03:21.178Z,100.00
2018-06-01T10:05:48.575Z,100.00
2018-06-01T10:08:15.983Z,100.00
2018-06-01T10:10:43.376Z,100.00
2018-06-01T10:13:10.779Z,100.00
2018-06-01T10:15:38.220Z,100.00
2018-06-01T10:18:05.598Z,100.00
2018-06-01T10:20:35.629Z,100.00
2018-06-01T10:23:03.022Z,100.00
2018-06-01T10:25:30.426Z,100.00
2018-06-01T10:27:58.290Z,100.00
2018-06-01T10:30:25.715Z,100.00
2018-06-01T10:32:53.121Z,100.00
2018-06-01T10:35:20.490Z,100.00
2018-06-01T10:37:47.890Z,100.00
2018-06-01T10:40:15.283Z,100.00
2018-06-01T10:42:42.687Z,100.00
2018-06-01T10:45:10.129Z,100.00
2018-06-01T10:47:37.475Z,100.00
2018-06-01T10:50:04.871Z,100.00
2018-06-01T10:52:32.267Z,100.00
2018-06-01T10:54:59.659Z,100.00
2018-06-01T10:57:27.054Z,100.00
2018-06-01T10:59:54.448Z,100.00
2018-06-01T11:02:21.851Z,100.00
2018-06-01T11:04:49.246Z,100.00
2018-06-01T11:07:16.651Z,100.00
2018-06-01T11:09:44.047Z,100.00
2018-06-01T11:12:11.504Z,100.00
2018-06-01T11:14:38.899Z,100.00
2018-06-01T11:17:06.304Z,100.00
2018-06-01T11:19:33.700Z,100.00
2018-06-01T11:22:01.099Z,100.00
2018-06-01T11:24:28.503Z,100.00
2018-06-01T11:26:55.941Z,100.00
2018-06-01T11:29:23.302Z,100.00
2018-06-01T11:31:50.698Z,100.00
2018-06-01T11:34:18.102Z,100.00
2018-06-01T11:36:45.495Z,100.00
2018-06-01T11:39:12.896Z,100.00
2018-06-01T11:41:40.287Z,100.00
2018-06-01T11:44:07.682Z,100.00
2018-06-01T11:46:35.080Z,100.00
2018-06-01T11:49:02.470Z,100.00
2018-06-01T11:51:29.921Z,100.00
2018-06-01T11:53:57.259Z,100.00
2018-06-01T11:56:24.651Z,100.00
2018-06-01T11:58:52.046Z,100.00
2018-06-01T12:01:19.447Z,100.00
2018-06-01T12:03:46.844Z,100.00
2018-06-01T12:06:14.239Z,100.00
2018-06-01T12:08:41.637Z,100.00
2018-06-01T12:11:09.031Z,100.00
2018-06-01T12:13:36.427Z,100.00
2018-06-01T12:16:03.822Z,100.00
2018-06-01T12:18:31.223Z,100.00
2018-06-01T12:20:58.694Z,100.00
2018-06-01T12:23:26.102Z,100.00
2018-06-01T12:25:53.674Z,100.00
2018-06-01T12:28:21.076Z,100.00
2018-06-01T12:30:50.054Z,100.00
2018-06-01T12:33:17.467Z,100.00
2018-06-01T12:35:44.867Z,100.00
2018-06-01T12:38:12.327Z,100.00
2018-06-01T12:40:39.729Z,100.00
2018-06-01T12:43:07.122Z,100.00
2018-06-01T12:45:34.520Z,100.00
2018-06-01T12:48:02.920Z,100.00
2018-06-01T12:50:30.318Z,100.00
2018-06-01T12:52:57.751Z,100.00
2018-06-01T12:55:25.159Z,100.00
2018-06-01T12:57:52.555Z,100.00
2018-06-01T13:00:20.245Z,100.00
2018-06-01T13:02:47.763Z,100.00
2018-06-01T13:05:15.150Z,100.00
2018-06-01T13:07:42.552Z,100.00
2018-06-01T13:10:09.940Z,100.00
2018-06-01T13:12:37.346Z,100.00
2018-06-01T13:15:04.728Z,100.00
2018-06-01T13:17:32.183Z,100.00
2018-06-01T13:19:59.615Z,100.00
2018-06-01T13:22:27.011Z,100.00
2018-06-01T13:24:54.406Z,100.00
2018-06-01T13:27:21.858Z,100.00
2018-06-01T13:29:49.289Z,100.00
2018-06-01T13:32:16.663Z,100.00
2018-06-01T13:34:44.057Z,100.00
2018-06-01T13:37:11.482Z,100.00
2018-06-01T13:39:38.897Z,100.00
2018-06-01T13:42:06.271Z,100.00
2018-06-01T13:44:33.667Z,100.00
2018-06-01T13:47:01.067Z,100.00
2018-06-01T13:49:28.475Z,100.00
2018-06-01T13:51:55.925Z,100.00
2018-06-01T13:54:23.356Z,100.00
2018-06-01T13:56:50.798Z,100.00
2018-06-01T13:59:18.611Z,100.00
2018-06-01T14:01:45.998Z,100.00
2018-06-01T14:04:13.426Z,100.00
2018-06-01T14:06:40.825Z,100.00
2018-06-01T14:09:08.243Z,100.00
2018-06-01T14:11:35.643Z,100.00
2018-06-01T14:14:03.031Z,100.00
2018-06-01T14:16:30.431Z,100.00
2018-06-01T14:18:57.836Z,100.00
2018-06-01T14:21:25.260Z,100.00
2018-06-01T14:23:52.688Z,100.00
2018-06-01T14:26:20.078Z,100.00
2018-06-01T14:28:47.477Z,100.00
2018-06-01T14:31:14.867Z,100.00
2018-06-01T14:33:42.284Z,100.00
2018-06-01T14:36:09.675Z,100.00
2018-06-01T14:38:37.072Z,100.00
2018-06-01T14:41:04.460Z,100.00
2018-06-01T14:43:31.855Z,100.00
2018-06-01T14:45:59.247Z,100.00
2018-06-01T14:48:26.654Z,100.00
2018-06-01T14:50:54.060Z,100.00
2018-06-01T14:53:21.452Z,100.00
2018-06-01T14:55:48.864Z,100.00
2018-06-01T14:58:16.252Z,100.00
2018-06-01T15:00:43.656Z,100.00
2018-06-01T15:03:11.051Z,100.00
2018-06-01T15:05:38.443Z,100.00
2018-06-01T15:08:05.842Z,100.00
2018-06-01T15:10:33.241Z,100.00
2018-06-01T15:13:00.637Z,100.00
2018-06-01T15:15:28.035Z,100.00
2018-06-01T15:17:55.430Z,100.00
2018-06-01T15:20:22.848Z,100.00
2018-06-01T15:22:50.231Z,100.00
2018-06-01T15:25:17.632Z,100.00
2018-06-01T15:27:45.023Z,100.00
2018-06-01T15:30:12.583Z,100.00
2018-06-01T15:32:39.991Z,100.00
2018-06-01T15:35:07.407Z,100.00
2018-06-01T15:37:34.801Z,100.00
2018-06-01T15:40:02.224Z,100.00
2018-06-01T15:42:29.630Z,100.00
2018-06-01T15:44:57.021Z,100.00
2018-06-01T15:47:24.435Z,100.00
2018-06-01T15:49:51.864Z,100.00
2018-06-01T15:52:19.256Z,100.00
2018-06-01T15:54:46.666Z,100.00
2018-06-01T15:57:14.069Z,100.00
2018-06-01T15:59:41.496Z,100.00
2018-06-01T16:02:08.896Z,100.00
2018-06-01T16:04:36.307Z,100.00
2018-06-01T16:07:03.703Z,100.00
2018-06-01T16:09:31.100Z,100.00
2018-06-01T16:11:58.495Z,100.00
2018-06-01T16:14:25.920Z,100.00
2018-06-01T16:16:53.483Z,100.00
2018-06-01T16:19:20.875Z,100.00
2018-06-01T16:21:48.284Z,100.00
2018-06-01T16:24:15.693Z,100.00
2018-06-01T16:26:43.087Z,100.00
2018-06-01T16:29:10.491Z,100.00
2018-06-01T16:31:37.896Z,100.00
2018-06-01T16:34:05.299Z,100.00
2018-06-01T16:36:32.915Z,100.00
2018-06-01T16:39:00.312Z,100.00
2018-06-01T16:41:27.739Z,100.00
2018-06-01T16:43:55.147Z,100.00
2018-06-01T16:46:22.541Z,100.00
2018-06-01T16:48:49.944Z,100.00
2018-06-01T16:51:17.338Z,100.00
2018-06-01T16:53:44.756Z,100.00
2018-06-01T16:56:12.150Z,100.00
2018-06-01T16:58:39.560Z,100.00
2018-06-01T17:01:06.955Z,100.00
2018-06-01T17:03:34.448Z,100.00
2018-06-01T17:06:01.892Z,100.00
2018-06-01T17:08:29.343Z,100.00
2018-06-01T17:10:56.934Z,100.00
2018-06-01T17:13:24.331Z,100.00
2018-06-01T17:15:51.731Z,100.00
2018-06-01T17:18:19.136Z,100.00
2018-06-01T17:20:46.555Z,100.00
2018-06-01T17:23:13.950Z,100.00
2018-06-01T17:25:41.355Z,100.00
2018-06-01T17:28:09.132Z,100.00
2018-06-01T17:30:36.526Z,100.00
2018-06-01T17:33:03.923Z,100.00
2018-06-01T17:35:31.320Z,100.00
2018-06-01T17:37:58.734Z,100.00
2018-06-01T17:40:26.123Z,100.00
2018-06-01T17:42:53.523Z,100.00
2018-06-01T17:45:20.923Z,100.00
2018-06-01T17:47:48.326Z,100.00
2018-06-01T17:50:15.722Z,100.00
2018-06-01T17:52:43.118Z,100.00
2018-06-01T17:55:10.951Z,100.00
2018-06-01T17:57:38.343Z,100.00
2018-06-01T18:00:05.807Z,100.00
2018-06-01T18:02:33.134Z,100.00
2018-06-01T18:05:00.527Z,100.00
2018-06-01T18:07:27.922Z,100.00
2018-06-01T18:09:55.319Z,100.00
2018-06-01T18:12:22.715Z,100.00
2018-06-01T18:14:50.141Z,100.00
2018-06-01T18:17:17.530Z,100.00
2018-06-01T18:19:44.931Z,100.00
2018-06-01T18:22:12.339Z,100.00
2018-06-01T18:24:39.734Z,100.00
2018-06-01T18:27:07.214Z,100.00
2018-06-01T18:29:34.611Z,100.00
2018-06-01T18:32:02.067Z,100.00
2018-06-01T18:34:29.457Z,100.00
2018-06-01T18:36:56.859Z,100.00
2018-06-01T18:39:24.249Z,100.00
2018-06-01T18:41:51.849Z,100.00
2018-06-01T18:44:19.219Z,100.00
2018-06-01T18:46:46.619Z,100.00
2018-06-01T18:49:14.016Z,100.00
2018-06-01T18:51:41.404Z,100.00
2018-06-01T18:54:08.798Z,100.00
2018-06-01T18:56:36.196Z,100.00
2018-06-01T18:59:03.594Z,100.00
2018-06-01T19:01:31.004Z,100.00
2018-06-01T19:03:58.398Z,100.00
2018-06-01T19:06:25.795Z,100.00
2018-06-01T19:08:53.187Z,100.00
2018-06-01T19:11:20.597Z,100.00
2018-06-01T19:13:47.985Z,100.00
2018-06-01T19:16:15.382Z,100.00
2018-06-01T19:18:42.778Z,100.00
2018-06-01T19:21:10.179Z,100.00
2018-06-01T19:23:37.575Z,100.00
2018-06-01T19:26:04.959Z,100.00
2018-06-01T19:28:33.638Z,100.00
2018-06-01T19:31:01.031Z,100.00
2018-06-01T19:33:28.481Z,100.00
2018-06-01T19:35:55.857Z,100.00
2018-06-01T19:38:23.650Z,100.00
2018-06-01T19:40:51.050Z,100.00
2018-06-01T19:43:18.451Z,100.00
2018-06-01T19:45:45.846Z,100.00
2018-06-01T19:48:13.234Z,100.00
2018-06-01T19:50:40.643Z,100.00
2018-06-01T19:53:08.040Z,100.00
2018-06-01T19:55:35.440Z,100.00
2018-06-01T19:58:02.841Z,100.00
2018-06-01T20:00:30.251Z,100.00
2018-06-01T20:02:57.649Z,100.00
2018-06-01T20:05:25.043Z,100.00
2018-06-01T20:07:52.455Z,100.00
2018-06-01T20:10:19.853Z,100.00
2018-06-01T20:12:47.255Z,100.00
2018-06-01T20:15:14.652Z,100.00
2018-06-01T20:17:42.062Z,100.00
2018-06-01T20:20:09.455Z,100.00
2018-06-01T20:22:36.868Z,100.00
2018-06-01T20:25:04.315Z,100.00
2018-06-01T20:27:31.714Z,100.00
2018-06-01T20:29:59.115Z,100.00
2018-06-01T20:32:26.508Z,100.00
2018-06-01T20:34:53.910Z,100.00
2018-06-01T20:37:21.307Z,100.00
2018-06-01T20:39:48.708Z,100.00
2018-06-01T20:42:16.099Z,100.00
2018-06-01T20:44:43.490Z,100.00
2018-06-01T20:47:10.955Z,100.00
2018-06-01T20:49:38.354Z,100.00
2018-06-01T20:52:05.749Z,100.00
2018-06-01T20:54:33.139Z,100.00
2018-06-01T20:57:00.534Z,100.00
2018-06-01T20:59:27.922Z,100.00
2018-06-01T21:01:55.358Z,100.00
2018-06-01T21:04:22.755Z,100.00
2018-06-01T21:06:50.161Z,100.00
2018-06-01T21:09:17.555Z,100.00
2018-06-01T21:11:44.969Z,100.00
2018-06-01T21:14:12.372Z,100.00
2018-06-01T21:16:39.766Z,100.00
2018-06-01T21:19:07.163Z,100.00
2018-06-01T21:21:34.853Z,100.00
2018-06-01T21:24:02.252Z,100.00
2018-06-01T21:26:29.639Z,100.00
2018-06-01T21:28:57.037Z,100.00
2018-06-01T21:31:24.427Z,100.00
2018-06-01T21:33:51.827Z,100.00
2018-06-01T21:36:19.220Z,100.00
2018-06-01T21:38:46.631Z,100.00
2018-06-01T21:41:14.023Z,100.00
2018-06-01T21:43:41.415Z,100.00
2018-06-01T21:46:08.812Z,100.00
2018-06-01T21:48:36.211Z,100.00
2018-06-01T21:51:03.612Z,100.00
2018-06-01T21:53:30.999Z,100.00
2018-06-01T21:55:58.405Z,100.00
2018-06-01T21:58:25.798Z,100.00
2018-06-01T22:00:53.210Z,100.00
2018-06-01T22:03:20.602Z,100.00
2018-06-01T22:05:47.999Z,100.00
2018-06-01T22:08:15.408Z,100.00
2018-06-01T22:10:42.798Z,100.00
2018-06-01T22:13:10.196Z,100.00
2018-06-01T22:15:37.598Z,100.00
2018-06-01T22:18:04.995Z,100.00
2018-06-01T22:20:32.394Z,100.00
2018-06-01T22:22:59.814Z,100.00
2018-06-01T22:25:27.213Z,100.00
2018-06-01T22:27:55.068Z,100.00
2018-06-01T22:30:22.471Z,100.00
2018-06-01T22:32:50.035Z,100.00
2018-06-01T22:35:17.439Z,100.00
2018-06-01T22:37:44.894Z,100.00
2018-06-01T22:40:12.300Z,100.00
2018-06-01T22:42:39.695Z,100.00
2018-06-01T22:45:07.091Z,100.00
2018-06-01T22:47:34.590Z,100.00
2018-06-01T22:50:01.987Z,100.00
2018-06-01T22:52:29.387Z,100.00
2018-06-01T22:54:56.783Z,100.00
2018-06-01T22:57:24.182Z,100.00
2018-06-01T22:59:51.582Z,100.00
2018-06-01T23:02:18.976Z,100.00
2018-06-01T23:04:46.377Z,100.00
2018-06-01T23:07:13.771Z,100.00
2018-06-01T23:09:41.170Z,100.00
2018-06-01T23:12:08.568Z,100.00
2018-06-01T23:14:36.005Z,100.00
2018-06-01T23:17:03.371Z,100.00
2018-06-01T23:19:30.922Z,100.00
2018-06-01T23:21:58.327Z,100.00
2018-06-01T23:24:25.839Z,100.00
2018-06-01T23:26:53.246Z,100.00
2018-06-01T23:29:20.647Z,100.00
2018-06-01T23:31:48.059Z,100.00
2018-06-01T23:34:15.442Z,100.00
2018-06-01T23:36:42.899Z,100.00
2018-06-01T23:39:10.295Z,100.00
2018-06-01T23:41:37.708Z,100.00
2018-06-01T23:44:05.108Z,100.00
2018-06-01T23:46:32.498Z,100.00
2018-06-01T23:48:59.899Z,100.00
2018-06-01T23:51:27.298Z,100.00
2018-06-01T23:53:54.742Z,100.00
2018-06-01T23:56:22.138Z,100.00
2018-06-01T23:58:49.531Z,100.00
